createdAt,value
2023-05-05T00:02:29.044Z,96640.16
2023-05-05T00:04:57.060Z,96641.13
2023-05-05T00:07:25.107Z,96641.84
2023-05-05T00:09:57.328Z,96627.78
2023-05-05T00:12:25.366Z,96637.53
2023-05-05T00:14:53.309Z,96628.44
2023-05-05T00:17:21.539Z,96635.34
2023-05-05T00:19:51.221Z,96628.38
2023-05-05T00:22:19.200Z,96634.41
2023-05-05T00:24:47.200Z,96630.13
2023-05-05T00:27:15.234Z,96635.34
2023-05-05T00:29:43.357Z,96641.13
2023-05-05T00:32:11.465Z,96648.53
2023-05-05T00:34:39.514Z,96647.63
2023-05-05T00:37:08.803Z,96643.16
2023-05-05T00:39:36.915Z,96642.31
2023-05-05T00:42:05.004Z,96641.69
2023-05-05T00:44:40.243Z,96646.69
2023-05-05T00:47:10.075Z,96641.53
2023-05-05T00:49:39.131Z,96646.25
2023-05-05T00:52:09.400Z,96641.91
2023-05-05T00:54:38.799Z,96638.06
2023-05-05T00:57:07.761Z,96640.94
2023-05-05T00:59:36.507Z,96638.28
2023-05-05T01:02:04.716Z,96640.13
2023-05-05T01:04:32.735Z,96639.81
2023-05-05T01:07:14.608Z,96643.84
2023-05-05T01:10:15.279Z,96629.69
2023-05-05T01:12:59.069Z,96635.44
2023-05-05T01:15:35.081Z,96632.25
2023-05-05T01:18:12.801Z,96637.44
2023-05-05T01:20:50.590Z,96629.97
2023-05-05T01:23:43.254Z,96633.41
2023-05-05T01:26:46.523Z,96623.44
2023-05-05T01:29:39.372Z,96627.72
2023-05-05T01:32:12.704Z,96621.59
2023-05-05T01:34:46.128Z,96624.47
2023-05-05T01:37:21.764Z,96623.66
2023-05-05T01:39:55.367Z,96621.59
2023-05-05T01:42:28.525Z,96625.97
2023-05-05T01:44:58.776Z,96622.97
2023-05-05T01:47:30.183Z,96627.47
2023-05-05T01:49:59.100Z,96627.59
2023-05-05T01:52:28.942Z,96635.78
2023-05-05T01:54:58.446Z,96631.53
2023-05-05T01:57:27.518Z,96627.38
2023-05-05T01:59:56.751Z,96634.78
2023-05-05T02:02:29.888Z,96641.69
2023-05-05T02:05:00.010Z,96642.28
2023-05-05T02:07:31.598Z,96642.28
2023-05-05T02:10:00.816Z,96650.94
2023-05-05T02:12:30.940Z,96653.03
2023-05-05T02:15:02.344Z,96651.66
2023-05-05T02:17:32.517Z,96655.22
2023-05-05T02:20:02.935Z,96647.25
2023-05-05T02:22:31.643Z,96649.44
2023-05-05T02:25:00.054Z,96654.19
2023-05-05T02:27:29.220Z,96654.44
2023-05-05T02:30:03.026Z,96657.09
2023-05-05T02:32:37.324Z,96660.44
2023-05-05T02:35:11.970Z,96655.03
2023-05-05T02:37:49.193Z,96656.53
2023-05-05T02:40:23.108Z,96654.34
2023-05-05T02:42:55.212Z,96651.13
2023-05-05T02:45:28.934Z,96657.81
2023-05-05T02:47:58.373Z,96655.63
2023-05-05T02:50:26.837Z,96657.22
2023-05-05T02:53:03.719Z,96666.47
2023-05-05T02:55:42.176Z,96663.34
2023-05-05T02:58:25.279Z,96662.88
2023-05-05T03:01:03.654Z,96668.88
2023-05-05T03:03:41.812Z,96663.34
2023-05-05T03:06:18.339Z,96664.63
2023-05-05T03:08:57.091Z,96665.78
2023-05-05T03:11:33.771Z,96669.94
2023-05-05T03:14:11.038Z,96664.72
2023-05-05T03:16:42.832Z,96669.00
2023-05-05T03:19:15.388Z,96667.50
2023-05-05T03:21:44.337Z,96666.69
2023-05-05T03:24:16.477Z,96661.03
2023-05-05T03:26:50.429Z,96655.16
2023-05-05T03:29:22.221Z,96655.16
2023-05-05T03:31:50.631Z,96658.69
2023-05-05T03:34:20.948Z,96656.16
2023-05-05T03:36:50.001Z,96656.50
2023-05-05T03:39:18.768Z,96658.91
2023-05-05T03:41:47.348Z,96664.13
2023-05-05T03:44:16.534Z,96661.00
2023-05-05T03:46:44.604Z,96657.53
2023-05-05T03:49:15.063Z,96661.22
2023-05-05T03:51:45.749Z,96662.50
2023-05-05T03:54:13.886Z,96660.28
2023-05-05T03:56:42.478Z,96660.41
2023-05-05T03:59:10.499Z,96662.38
2023-05-05T04:01:38.545Z,96659.41
2023-05-05T04:04:06.791Z,96657.75
2023-05-05T04:06:34.789Z,96666.63
2023-05-05T04:09:05.649Z,96654.28
2023-05-05T04:11:33.972Z,96658.44
2023-05-05T04:14:02.292Z,96662.84
2023-05-05T04:16:31.947Z,96659.72
2023-05-05T04:19:00.643Z,96659.25
2023-05-05T04:21:28.949Z,96672.97
2023-05-05T04:23:57.725Z,96670.66
2023-05-05T04:26:27.713Z,96668.56
2023-05-05T04:28:56.968Z,96675.41
2023-05-05T04:31:25.226Z,96673.56
2023-05-05T04:33:53.338Z,96678.59
2023-05-05T04:36:21.380Z,96677.00
2023-05-05T04:38:49.421Z,96683.78
2023-05-05T04:41:17.553Z,96676.72
2023-05-05T04:43:47.751Z,96683.50
2023-05-05T04:46:16.777Z,96682.22
2023-05-05T04:48:44.968Z,96691.31
2023-05-05T04:51:14.322Z,96689.78
2023-05-05T04:53:42.460Z,96690.38
2023-05-05T04:56:10.463Z,96692.31
2023-05-05T04:58:38.585Z,96701.41
2023-05-05T05:01:08.846Z,96703.81
2023-05-05T05:03:37.780Z,96701.47
2023-05-05T05:06:06.123Z,96701.00
2023-05-05T05:08:34.186Z,96701.91
2023-05-05T05:11:02.290Z,96706.44
2023-05-05T05:13:30.790Z,96708.28
2023-05-05T05:15:58.851Z,96699.25
2023-05-05T05:18:28.428Z,96699.03
2023-05-05T05:20:56.678Z,96705.69
2023-05-05T05:23:25.073Z,96700.75
2023-05-05T05:25:53.531Z,96708.78
2023-05-05T05:28:22.901Z,96705.66
2023-05-05T05:30:55.488Z,96715.22
2023-05-05T05:33:23.560Z,96717.72
2023-05-05T05:35:54.300Z,96729.25
2023-05-05T05:38:23.149Z,96726.09
2023-05-05T05:40:55.161Z,96722.59
2023-05-05T05:43:24.373Z,96722.19
2023-05-05T05:45:52.581Z,96722.28
2023-05-05T05:48:24.747Z,96722.59
2023-05-05T05:50:54.873Z,96719.53
2023-05-05T05:53:23.006Z,96727.09
2023-05-05T05:55:52.012Z,96727.44
2023-05-05T05:58:20.813Z,96731.75
2023-05-05T06:00:49.842Z,96731.59
2023-05-05T06:03:18.215Z,96737.50
2023-05-05T06:05:46.934Z,96745.28
2023-05-05T06:08:17.150Z,96748.00
2023-05-05T06:10:50.232Z,96735.84
2023-05-05T06:13:21.359Z,96728.97
2023-05-05T06:15:51.793Z,96731.47
2023-05-05T06:18:20.347Z,96736.28
2023-05-05T06:20:51.620Z,96730.25
2023-05-05T06:23:22.992Z,96734.31
2023-05-05T06:25:55.981Z,96746.06
2023-05-05T06:28:24.043Z,96729.84
2023-05-05T06:30:52.945Z,96738.13
2023-05-05T06:33:20.973Z,96725.94
2023-05-05T06:35:49.474Z,96734.25
2023-05-05T06:38:17.529Z,96730.06
2023-05-05T06:40:49.725Z,96732.53
2023-05-05T06:43:19.253Z,96735.72
2023-05-05T06:45:54.120Z,96734.44
2023-05-05T06:48:22.467Z,96743.53
2023-05-05T06:50:50.501Z,96741.19
2023-05-05T06:53:18.497Z,96745.75
2023-05-05T06:55:49.063Z,96743.41
2023-05-05T06:58:17.074Z,96741.81
2023-05-05T07:00:45.164Z,96740.81
2023-05-05T07:03:13.312Z,96744.56
2023-05-05T07:05:41.901Z,96741.41
2023-05-05T07:08:11.349Z,96750.53
2023-05-05T07:10:39.584Z,96744.38
2023-05-05T07:13:09.286Z,96750.03
2023-05-05T07:15:37.632Z,96756.94
2023-05-05T07:18:06.328Z,96751.91
2023-05-05T07:20:34.598Z,96751.91
2023-05-05T07:23:02.602Z,96753.56
2023-05-05T07:25:30.639Z,96749.00
2023-05-05T07:27:59.101Z,96751.91
2023-05-05T07:30:28.639Z,96758.59
2023-05-05T07:32:56.921Z,96758.59
2023-05-05T07:35:25.155Z,96762.91
2023-05-05T07:37:53.492Z,96756.50
2023-05-05T07:40:21.718Z,96763.44
2023-05-05T07:42:49.716Z,96768.50
2023-05-05T07:45:17.879Z,96761.59
2023-05-05T07:47:47.374Z,96772.53
2023-05-05T07:50:16.134Z,96770.94
2023-05-05T07:52:49.966Z,96765.59
2023-05-05T07:55:24.442Z,96769.09
2023-05-05T07:57:52.546Z,96765.34
2023-05-05T08:00:21.698Z,96765.34
2023-05-05T08:02:51.210Z,96772.28
2023-05-05T08:05:19.588Z,96766.41
2023-05-05T08:07:47.734Z,96759.47
2023-05-05T08:10:15.877Z,96764.00
2023-05-05T08:12:43.979Z,96756.00
2023-05-05T08:15:12.876Z,96761.09
2023-05-05T08:17:48.997Z,96761.88
2023-05-05T08:20:19.953Z,96757.63
2023-05-05T08:22:48.866Z,96764.78
2023-05-05T08:25:16.897Z,96766.91
2023-05-05T08:27:46.284Z,96769.31
2023-05-05T08:30:17.111Z,96770.34
2023-05-05T08:32:45.267Z,96769.00
2023-05-05T08:35:13.641Z,96775.97
2023-05-05T08:37:43.275Z,96767.97
2023-05-05T08:40:14.955Z,96773.31
2023-05-05T08:42:44.501Z,96771.66
2023-05-05T08:45:12.976Z,96773.31
2023-05-05T08:47:43.063Z,96775.44
2023-05-05T08:50:13.360Z,96779.97
2023-05-05T08:52:45.891Z,96773.84
2023-05-05T08:55:21.306Z,96774.41
2023-05-05T08:57:54.413Z,96779.47
2023-05-05T09:00:23.741Z,96773.59
2023-05-05T09:02:52.298Z,96770.69
2023-05-05T09:05:20.574Z,96769.63
2023-05-05T09:07:51.004Z,96772.56
2023-05-05T09:10:21.812Z,96776.88
2023-05-05T09:12:51.410Z,96773.97
2023-05-05T09:15:19.636Z,96771.09
2023-05-05T09:17:48.505Z,96772.97
2023-05-05T09:20:19.906Z,96768.25
2023-05-05T09:22:49.443Z,96769.38
2023-05-05T09:25:19.465Z,96759.00
2023-05-05T09:27:49.770Z,96757.69
2023-05-05T09:30:24.386Z,96764.13
2023-05-05T09:32:54.136Z,96769.75
2023-05-05T09:35:23.712Z,96765.56
2023-05-05T09:37:53.465Z,96771.75
2023-05-05T09:43:52.817Z,96765.41
2023-05-05T09:46:20.962Z,96765.72
2023-05-05T09:48:49.152Z,96767.63
2023-05-05T09:51:17.407Z,96758.56
2023-05-05T09:53:46.786Z,96765.25
2023-05-05T09:56:14.831Z,96770.81
2023-05-05T09:58:43.037Z,96760.16
2023-05-05T10:01:24.184Z,96760.41
2023-05-05T10:03:53.068Z,96762.00
2023-05-05T10:06:21.944Z,96759.91
2023-05-05T10:09:02.460Z,96757.00
2023-05-05T10:11:31.293Z,96763.38
2023-05-05T10:13:59.703Z,96759.66
2023-05-05T10:16:31.011Z,96755.38
2023-05-05T10:19:02.390Z,96757.00
2023-05-05T10:21:41.848Z,96749.00
2023-05-05T10:24:18.672Z,96751.16
2023-05-05T10:26:48.372Z,96748.22
2023-05-05T10:29:28.649Z,96740.78
2023-05-05T10:32:18.922Z,96745.28
2023-05-05T10:34:58.530Z,96747.16
2023-05-05T10:37:28.240Z,96734.91
2023-05-05T10:39:58.393Z,96742.63
2023-05-05T10:42:27.699Z,96733.84
2023-05-05T10:44:55.940Z,96725.84
2023-05-05T10:47:24.908Z,96724.53
2023-05-05T10:50:00.796Z,96724.81
2023-05-05T10:52:39.818Z,96729.63
2023-05-05T10:55:16.570Z,96720.88
2023-05-05T10:57:46.941Z,96716.41
2023-05-05T11:00:57.013Z,96703.59
2023-05-05T11:03:25.266Z,96700.69
2023-05-05T11:06:16.359Z,96695.41
2023-05-05T11:08:45.611Z,96696.50
2023-05-05T11:11:15.098Z,96697.84
2023-05-05T11:13:43.194Z,96698.19
2023-05-05T11:16:48.004Z,96696.03
2023-05-05T11:19:48.153Z,96698.72
2023-05-05T11:22:17.419Z,96691.28
2023-05-05T11:24:45.724Z,96693.50
2023-05-05T11:27:15.106Z,96697.25
2023-05-05T11:30:12.106Z,96686.91
2023-05-05T11:32:40.530Z,96694.91
2023-05-05T11:35:09.429Z,96685.59
2023-05-05T11:37:39.309Z,96684.53
2023-05-05T11:40:22.361Z,96684.25
2023-05-05T11:43:04.809Z,96684.25
2023-05-05T11:45:33.255Z,96677.59
2023-05-05T11:48:25.397Z,96679.19
2023-05-05T11:50:54.476Z,96675.47
2023-05-05T11:53:22.515Z,96671.19
2023-05-05T11:55:50.561Z,96663.44
2023-05-05T11:58:22.924Z,96669.84
2023-05-05T12:00:51.400Z,96669.06
2023-05-05T12:03:19.515Z,96661.81
2023-05-05T12:05:48.823Z,96670.91
2023-05-05T12:08:16.934Z,96658.91
2023-05-05T12:10:44.988Z,96666.13
2023-05-05T12:13:20.559Z,96662.63
2023-05-05T12:15:50.178Z,96665.56
2023-05-05T12:18:21.379Z,96651.41
2023-05-05T12:20:49.653Z,96640.72
2023-05-05T12:23:17.749Z,96650.34
2023-05-05T12:25:46.585Z,96642.03
2023-05-05T12:28:14.643Z,96643.16
2023-05-05T12:30:42.713Z,96646.63
2023-05-05T12:33:12.154Z,96629.19
2023-05-05T12:35:41.419Z,96630.03
2023-05-05T12:38:09.786Z,96622.56
2023-05-05T12:40:45.699Z,96627.09
2023-05-05T12:43:31.982Z,96617.44
2023-05-05T12:46:08.796Z,96616.13
2023-05-05T12:48:40.197Z,96608.13
2023-05-05T12:51:20.786Z,96607.28
2023-05-05T12:53:50.555Z,96598.19
2023-05-05T12:56:40.694Z,96597.41
2023-05-05T12:59:10.381Z,96592.06
2023-05-05T13:01:51.166Z,96596.59
2023-05-05T13:04:22.047Z,96596.81
2023-05-05T13:06:54.030Z,96585.84
2023-05-05T13:09:27.121Z,96587.75
2023-05-05T13:11:55.876Z,96585.06
2023-05-05T13:14:24.214Z,96587.72
2023-05-05T13:16:52.373Z,96582.13
2023-05-05T13:19:23.579Z,96581.03
2023-05-05T13:21:51.628Z,96570.56
2023-05-05T13:24:28.567Z,96574.06
2023-05-05T13:27:04.045Z,96569.00
2023-05-05T13:29:33.008Z,96560.69
2023-05-05T13:32:01.336Z,96550.28
2023-05-05T13:34:30.783Z,96549.47
2023-05-05T13:36:58.829Z,96544.34
2023-05-05T13:39:27.007Z,96536.09
2023-05-05T13:41:55.266Z,96535.53
2023-05-05T13:44:23.288Z,96535.31
2023-05-05T13:46:51.298Z,96525.97
2023-05-05T13:49:19.933Z,96524.91
2023-05-05T13:51:50.219Z,96510.72
2023-05-05T13:54:18.268Z,96508.84
2023-05-05T13:56:46.751Z,96501.66
2023-05-05T13:59:14.782Z,96499.78
2023-05-05T14:01:43.013Z,96501.66
2023-05-05T14:04:11.072Z,96497.66
2023-05-05T14:06:39.123Z,96486.94
2023-05-05T14:09:08.657Z,96486.13
2023-05-05T14:11:36.636Z,96488.56
2023-05-05T14:14:06.118Z,96485.34
2023-05-05T14:16:34.308Z,96491.78
2023-05-05T14:19:02.516Z,96496.31
2023-05-05T14:21:31.638Z,96508.34
2023-05-05T14:23:59.724Z,96511.84
2023-05-05T14:26:29.136Z,96516.13
2023-05-05T14:28:57.172Z,96509.72
2023-05-05T14:31:25.320Z,96515.59
2023-05-05T14:33:53.351Z,96508.38
2023-05-05T14:36:21.406Z,96508.38
2023-05-05T14:38:49.425Z,96501.16
2023-05-05T14:41:17.439Z,96495.78
2023-05-05T14:43:46.810Z,96492.09
2023-05-05T14:46:14.949Z,96494.53
2023-05-05T14:48:43.400Z,96494.50
2023-05-05T14:51:11.501Z,96490.00
2023-05-05T14:53:39.493Z,96496.69
2023-05-05T14:56:08.036Z,96496.44
2023-05-05T14:58:35.994Z,96497.50
2023-05-05T15:01:05.764Z,96496.19
2023-05-05T15:03:33.911Z,96494.81
2023-05-05T15:06:02.044Z,96490.56
2023-05-05T15:08:30.031Z,96487.38
2023-05-05T15:10:58.073Z,96487.38
2023-05-05T15:13:26.131Z,96490.03
2023-05-05T15:15:54.352Z,96491.66
2023-05-05T15:18:23.830Z,96489.25
2023-05-05T15:20:51.908Z,96489.50
2023-05-05T15:23:20.039Z,96488.44
2023-05-05T15:25:48.166Z,96488.97
2023-05-05T15:28:17.229Z,96484.16
2023-05-05T15:30:45.267Z,96487.41
2023-05-05T15:33:13.283Z,96482.31
2023-05-05T15:35:42.815Z,96478.28
2023-05-05T15:38:10.887Z,96479.88
2023-05-05T15:40:38.836Z,96488.72
2023-05-05T15:43:06.839Z,96482.56
2023-05-05T15:45:35.835Z,96500.19
2023-05-05T15:48:03.865Z,96506.56
2023-05-05T15:50:31.934Z,96518.34
2023-05-05T15:53:01.777Z,96529.00
2023-05-05T15:55:33.375Z,96537.28
2023-05-05T15:58:01.450Z,96539.91
2023-05-05T16:00:31.296Z,96546.84
2023-05-05T16:02:59.500Z,96549.22
2023-05-05T16:05:32.812Z,96559.88
2023-05-05T16:08:02.258Z,96571.06
2023-05-05T16:10:30.531Z,96571.56
2023-05-05T16:12:58.610Z,96580.03
2023-05-05T16:15:26.625Z,96568.56
2023-05-05T16:17:54.738Z,96569.59
2023-05-05T16:20:23.108Z,96564.78
2023-05-05T16:22:51.584Z,96590.09
2023-05-05T16:25:23.325Z,96593.28
2023-05-05T16:27:51.951Z,96585.19
2023-05-05T16:30:20.286Z,96582.78
2023-05-05T16:32:51.153Z,96593.63
2023-05-05T16:35:19.373Z,96593.59
2023-05-05T16:37:47.492Z,96587.44
2023-05-05T16:40:15.786Z,96593.03
2023-05-05T16:42:45.197Z,96599.94
2023-05-05T16:45:13.272Z,96597.19
2023-05-05T16:47:42.039Z,96594.50
2023-05-05T16:50:10.797Z,96588.13
2023-05-05T16:52:38.834Z,96583.06
2023-05-05T16:55:07.695Z,96573.63
2023-05-05T16:57:35.948Z,96566.41
2023-05-05T17:00:07.365Z,96559.81
2023-05-05T17:02:36.188Z,96563.50
2023-05-05T17:05:04.473Z,96567.25
2023-05-05T17:07:32.623Z,96555.34
2023-05-05T17:10:00.639Z,96562.28
2023-05-05T17:12:28.716Z,96567.78
2023-05-05T17:14:56.676Z,96573.13
2023-05-05T17:17:26.189Z,96572.81
2023-05-05T17:19:54.332Z,96578.63
2023-05-05T17:22:22.277Z,96583.69
2023-05-05T17:24:51.211Z,96588.25
2023-05-05T17:27:19.272Z,96587.41
2023-05-05T17:29:47.281Z,96585.25
2023-05-05T17:32:15.266Z,96599.13
2023-05-05T17:34:44.631Z,96593.22
2023-05-05T17:37:12.627Z,96606.53
2023-05-05T17:39:40.674Z,96605.44
2023-05-05T17:42:09.234Z,96590.28
2023-05-05T17:44:37.225Z,96592.38
2023-05-05T17:47:07.685Z,96597.16
2023-05-05T17:49:35.744Z,96593.44
2023-05-05T17:52:05.574Z,96601.69
2023-05-05T17:54:33.588Z,96608.34
2023-05-05T17:57:02.342Z,96595.28
2023-05-05T17:59:31.949Z,96595.50
2023-05-05T18:02:00.020Z,96598.16
2023-05-05T18:04:28.251Z,96594.97
2023-05-05T18:06:56.582Z,96599.22
2023-05-05T18:09:25.908Z,96591.53
2023-05-05T18:11:54.859Z,96585.88
2023-05-05T18:14:25.072Z,96590.88
2023-05-05T18:16:54.168Z,96591.38
2023-05-05T18:19:24.475Z,96592.44
2023-05-05T18:21:54.612Z,96594.56
2023-05-05T18:24:22.673Z,96592.69
2023-05-05T18:26:53.351Z,96593.47
2023-05-05T18:29:22.921Z,96596.13
2023-05-05T18:31:54.513Z,96597.94
2023-05-05T18:34:22.864Z,96603.47
2023-05-05T18:36:54.119Z,96599.50
2023-05-05T18:39:22.162Z,96600.59
2023-05-05T18:41:50.262Z,96613.03
2023-05-05T18:44:20.083Z,96610.88
2023-05-05T18:46:49.377Z,96615.69
2023-05-05T18:49:17.462Z,96626.03
2023-05-05T18:51:45.560Z,96615.38
2023-05-05T18:54:14.258Z,96620.69
2023-05-05T18:56:42.502Z,96630.81
2023-05-05T18:59:11.337Z,96629.44
2023-05-05T19:01:43.026Z,96623.31
2023-05-05T19:04:26.559Z,96639.53
2023-05-05T19:06:58.464Z,96639.59
2023-05-05T19:09:26.548Z,96639.53
2023-05-05T19:11:54.667Z,96643.81
2023-05-05T19:14:23.689Z,96644.78
2023-05-05T19:16:55.767Z,96647.44
2023-05-05T19:19:24.036Z,96658.09
2023-05-05T19:21:52.454Z,96664.09
2023-05-05T19:24:20.544Z,96664.34
2023-05-05T19:26:48.605Z,96670.22
2023-05-05T19:29:17.248Z,96665.44
2023-05-05T19:31:45.448Z,96661.09
2023-05-05T19:34:15.003Z,96658.94
2023-05-05T19:36:43.245Z,96658.41
2023-05-05T19:39:12.606Z,96664.75
2023-05-05T19:41:41.943Z,96664.19
2023-05-05T19:44:10.503Z,96664.97
2023-05-05T19:46:38.883Z,96656.13
2023-05-05T19:49:07.303Z,96670.25
2023-05-05T19:51:36.691Z,96669.44
2023-05-05T19:54:05.998Z,96681.59
2023-05-05T19:56:34.011Z,96688.03
2023-05-05T19:59:05.379Z,96688.56
2023-05-05T20:01:34.036Z,96688.03
2023-05-05T20:04:03.272Z,96691.47
2023-05-05T20:06:31.930Z,96699.72
2023-05-05T20:09:01.905Z,96705.00
2023-05-05T20:11:30.058Z,96698.84
2023-05-05T20:13:58.853Z,96701.28
2023-05-05T20:16:26.929Z,96695.97
2023-05-05T20:18:55.359Z,96694.66
2023-05-05T20:21:23.464Z,96706.59
2023-05-05T20:23:51.866Z,96709.25
2023-05-05T20:26:21.345Z,96707.06
2023-05-05T20:28:49.513Z,96714.03
2023-05-05T20:31:17.605Z,96718.78
2023-05-05T20:33:46.023Z,96715.06
2023-05-05T20:36:14.013Z,96713.44
2023-05-05T20:38:42.490Z,96722.47
2023-05-05T20:41:11.360Z,96719.00
2023-05-05T20:43:40.707Z,96714.44
2023-05-05T20:46:12.921Z,96717.34
2023-05-05T20:48:43.081Z,96714.69
2023-05-05T20:51:11.450Z,96707.00
2023-05-05T20:53:39.549Z,96706.47
2023-05-05T20:56:08.970Z,96710.44
2023-05-05T20:58:43.899Z,96702.94
2023-05-05T21:01:12.570Z,96704.53
2023-05-05T21:03:40.577Z,96696.81
2023-05-05T21:06:08.608Z,96695.25
2023-05-05T21:08:36.616Z,96694.97
2023-05-05T21:11:09.148Z,96700.75
2023-05-05T21:13:37.310Z,96696.72
2023-05-05T21:16:07.363Z,96699.41
2023-05-05T21:18:35.612Z,96705.53
2023-05-05T21:21:03.627Z,96695.69
2023-05-05T21:23:32.016Z,96693.50
2023-05-05T21:26:00.710Z,96694.63
2023-05-05T21:28:28.704Z,96696.97
2023-05-05T21:31:19.537Z,96694.06
2023-05-05T21:33:46.673Z,96700.13
2023-05-05T21:36:17.501Z,96693.03
2023-05-05T21:38:45.666Z,96685.78
2023-05-05T21:41:13.734Z,96687.16
2023-05-05T21:43:41.768Z,96683.63
2023-05-05T21:46:10.244Z,96690.25
2023-05-05T21:48:41.273Z,96686.53
2023-05-05T21:51:10.596Z,96687.06
2023-05-05T21:53:38.796Z,96693.19
2023-05-05T21:56:08.633Z,96687.06
2023-05-05T21:58:36.766Z,96685.94
2023-05-05T22:01:29.476Z,96687.31
2023-05-05T22:03:57.878Z,96675.56
2023-05-05T22:06:27.678Z,96673.47
2023-05-05T22:08:56.669Z,96671.22
2023-05-05T22:11:24.893Z,96669.41
2023-05-05T22:13:52.952Z,96674.94
2023-05-05T22:16:20.986Z,96674.94
2023-05-05T22:18:48.981Z,96673.31
2023-05-05T22:21:17.174Z,96668.00
2023-05-05T22:23:47.032Z,96669.53
2023-05-05T22:26:43.034Z,96671.72
2023-05-05T22:29:11.730Z,96674.59
2023-05-05T22:31:39.940Z,96679.63
2023-05-05T22:34:08.401Z,96684.13
2023-05-05T22:36:36.410Z,96682.50
2023-05-05T22:39:05.788Z,96684.94
2023-05-05T22:41:33.809Z,96677.25
2023-05-05T22:44:01.972Z,96680.75
2023-05-05T22:46:30.124Z,96685.25
2023-05-05T22:48:58.150Z,96690.25
2023-05-05T22:51:26.199Z,96686.78
2023-05-05T22:53:54.243Z,96684.69
2023-05-05T22:56:23.592Z,96685.75
2023-05-05T22:58:51.606Z,96686.06
2023-05-05T23:01:19.633Z,96689.44
2023-05-05T23:03:47.747Z,96685.16
2023-05-05T23:06:15.781Z,96687.59
2023-05-05T23:08:44.543Z,96684.13
2023-05-05T23:11:12.546Z,96683.00
2023-05-05T23:13:41.992Z,96684.03
2023-05-05T23:16:10.295Z,96679.22
2023-05-05T23:18:38.700Z,96683.47
2023-05-05T23:21:07.002Z,96679.13
2023-05-05T23:23:35.088Z,96681.22
2023-05-05T23:26:03.286Z,96678.31
2023-05-05T23:28:31.347Z,96681.56
2023-05-05T23:31:00.735Z,96688.16
2023-05-05T23:33:28.812Z,96693.72
2023-05-05T23:35:56.818Z,96686.78
2023-05-05T23:38:26.377Z,96693.47
2023-05-05T23:40:54.533Z,96692.09
2023-05-05T23:43:22.483Z,96683.81
2023-05-05T23:45:50.657Z,96686.47
2023-05-05T23:48:20.079Z,96681.16
2023-05-05T23:50:48.099Z,96688.81
2023-05-05T23:53:16.741Z,96685.31
2023-05-05T23:55:44.749Z,96686.03
2023-05-05T23:58:12.774Z,96678.78
